Time;durP1;ratioP1;P1;durP2;ratioP2;P2;SDS_P1;SDS_P2;PMS_P1;PMS_P2;Temp;Humidity;BMP_temperature;BMP_pressure;BME280_temperature;BME280_humidity;BME280_pressure;Samples;Min_cycle;Max_cycle;Signal;HPM_P1;HPM_P2
2023/05/15 03:01:32;;;;;;;;;;;18.80;63.70;;;;;;5500608;22;45877;-58
2023/05/15 03:03:58;;;;;;;;;;;18.80;63.60;;;;;;4933615;28;46877;-59
2023/05/15 03:06:23;;;;;;;;;;;18.80;63.80;;;;;;4947171;28;45606;-58
2023/05/15 03:08:49;;;;;;;;;;;18.70;63.70;;;;;;4971202;28;45309;-59
2023/05/15 03:11:15;;;;;;;;;;;18.70;63.60;;;;;;4939729;28;45030;-58
2023/05/15 03:13:40;;;;;;;;;;;18.70;63.50;;;;;;4935675;28;45368;-60
2023/05/15 03:16:06;;;;;;;;;;;18.70;63.50;;;;;;4939358;28;45455;-60
2023/05/15 03:18:31;;;;;;;;;;;18.70;63.30;;;;;;4950672;28;45025;-57
2023/05/15 03:20:57;;;;;;;;;;;18.70;63.30;;;;;;4946209;28;45296;-58
2023/05/15 03:23:22;;;;;;;;;;;18.70;63.30;;;;;;4935957;28;47001;-60
2023/05/15 03:25:48;;;;;;;;;;;18.70;63.50;;;;;;4930271;28;45429;-59
2023/05/15 03:28:13;;;;;;;;;;;18.70;63.40;;;;;;4952384;28;45500;-59
2023/05/15 03:30:39;;;;;;;;;;;18.70;63.30;;;;;;4943568;28;46113;-61
2023/05/15 03:33:05;;;;;;;;;;;18.70;63.30;;;;;;4937138;28;46155;-60
2023/05/15 03:35:31;;;;;;;;;;;18.70;63.30;;;;;;4944274;28;45487;-61
2023/05/15 03:37:56;;;;;;;;;;;18.70;63.30;;;;;;4948702;28;45340;-58
2023/05/15 03:40:22;;;;;;;;;;;18.70;63.30;;;;;;4933280;28;45417;-58
2023/05/15 03:42:47;;;;;;;;;;;18.60;63.20;;;;;;4952498;28;46411;-59
2023/05/15 03:45:13;;;;;;;;;;;18.70;63.40;;;;;;4924737;28;45574;-66
2023/05/15 03:47:39;;;;;;;;;;;18.60;63.50;;;;;;4921017;28;45239;-59
2023/05/15 03:50:05;;;;;;;;;;;18.60;63.20;;;;;;4934778;28;45597;-59
2023/05/15 03:52:30;;;;;;;;;;;18.60;63.30;;;;;;4931370;28;45603;-58
2023/05/15 03:54:56;;;;;;;;;;;18.60;63.20;;;;;;4931286;28;45241;-61
2023/05/15 03:57:21;;;;;;;;;;;18.60;63.30;;;;;;4942598;28;45150;-59
2023/05/15 03:59:47;;;;;;;;;;;18.60;63.20;;;;;;4930283;28;45727;-58
2023/05/15 04:02:12;;;;;;;;;;;18.60;63.20;;;;;;4931483;28;45826;-58
2023/05/15 04:04:38;;;;;;;;;;;18.60;63.20;;;;;;4955396;28;45152;-58
2023/05/15 04:07:04;;;;;;;;;;;18.60;63.20;;;;;;4950644;28;45540;-58
2023/05/15 04:09:29;;;;;;;;;;;18.60;63.10;;;;;;4935567;28;45504;-57
2023/05/15 04:11:55;;;;;;;;;;;18.60;63.20;;;;;;4931790;28;46021;-59
2023/05/15 04:14:20;;;;;;;;;;;18.50;63.30;;;;;;4925021;28;45373;-60
2023/05/15 04:16:46;;;;;;;;;;;18.50;63.50;;;;;;4927695;28;45673;-59
2023/05/15 04:19:11;;;;;;;;;;;18.50;63.70;;;;;;4935956;28;45719;-58
2023/05/15 04:21:36;;;;;;;;;;;18.40;63.70;;;;;;4944158;28;45446;-58
2023/05/15 04:24:02;;;;;;;;;;;18.30;63.80;;;;;;4943354;28;45602;-59
2023/05/15 04:26:27;;;;;;;;;;;18.40;63.80;;;;;;4910845;28;45280;-59
2023/05/15 04:28:55;;;;;;;;;;;18.30;63.70;;;;;;4943390;28;45678;-59
2023/05/15 04:31:21;;;;;;;;;;;18.40;63.60;;;;;;4932831;28;45334;-58
2023/05/15 04:33:46;;;;;;;;;;;18.40;63.60;;;;;;4944112;28;45465;-59
2023/05/15 04:36:12;;;;;;;;;;;18.40;63.40;;;;;;4925760;28;45499;-58
2023/05/15 04:38:37;;;;;;;;;;;18.50;63.60;;;;;;4948220;28;45258;-57
2023/05/15 04:41:03;;;;;;;;;;;18.40;63.40;;;;;;4931987;28;45374;-62
2023/05/15 04:43:28;;;;;;;;;;;18.40;63.50;;;;;;4931784;28;45501;-59
2023/05/15 04:45:54;;;;;;;;;;;18.40;63.30;;;;;;4937183;28;45757;-58
2023/05/15 04:48:20;;;;;;;;;;;18.50;63.40;;;;;;4946523;28;46288;-59
2023/05/15 04:50:45;;;;;;;;;;;18.40;63.50;;;;;;4921992;28;45828;-59
2023/05/15 04:53:11;;;;;;;;;;;18.40;63.50;;;;;;4943300;28;45038;-58
2023/05/15 04:55:36;;;;;;;;;;;18.40;63.50;;;;;;4945736;28;45208;-58
2023/05/15 04:58:02;;;;;;;;;;;18.40;63.50;;;;;;4949644;28;45097;-59
2023/05/15 05:00:27;;;;;;;;;;;18.40;63.50;;;;;;4939861;28;45704;-62
2023/05/15 05:02:53;;;;;;;;;;;18.40;63.70;;;;;;4914610;28;45186;-59
2023/05/15 05:05:19;;;;;;;;;;;18.40;63.90;;;;;;4927753;28;44819;-62
2023/05/15 05:07:45;;;;;;;;;;;18.40;64.00;;;;;;4927270;28;45698;-59
2023/05/15 05:10:10;;;;;;;;;;;18.40;64.10;;;;;;4944995;28;45579;-59
2023/05/15 05:12:36;;;;;;;;;;;18.40;64.30;;;;;;4924888;28;45616;-58
2023/05/15 05:15:01;;;;;;;;;;;18.40;64.40;;;;;;4944964;28;45314;-59
2023/05/15 05:17:28;;;;;;;;;;;18.40;64.70;;;;;;4916162;28;45566;-59
2023/05/15 05:19:53;;;;;;;;;;;18.50;64.80;;;;;;4928945;28;46145;-61
2023/05/15 05:22:19;;;;;;;;;;;18.40;65.10;;;;;;4900363;28;45981;-59
2023/05/15 05:24:44;;;;;;;;;;;18.40;65.50;;;;;;4918628;28;45479;-59
2023/05/15 05:27:10;;;;;;;;;;;18.40;65.90;;;;;;4918756;28;45626;-58
2023/05/15 05:29:36;;;;;;;;;;;18.40;66.20;;;;;;4942792;28;45589;-60
2023/05/15 05:32:01;;;;;;;;;;;18.40;66.30;;;;;;4927928;28;46320;-61
2023/05/15 05:34:27;;;;;;;;;;;18.40;66.40;;;;;;4945212;28;45559;-59
2023/05/15 05:36:52;;;;;;;;;;;18.40;67.30;;;;;;4943375;28;45476;-60
2023/05/15 05:39:17;;;;;;;;;;;18.40;66.60;;;;;;4948795;28;46129;-60
2023/05/15 05:41:43;;;;;;;;;;;18.40;66.40;;;;;;4922715;28;45485;-60
2023/05/15 05:44:09;;;;;;;;;;;18.40;66.70;;;;;;4950617;28;45360;-60
2023/05/15 05:46:34;;;;;;;;;;;18.40;66.90;;;;;;4907030;28;45626;-59
2023/05/15 05:49:00;;;;;;;;;;;18.40;66.70;;;;;;4952189;28;45537;-59
2023/05/15 05:51:25;;;;;;;;;;;18.40;66.80;;;;;;4924875;28;45330;-61
2023/05/15 05:53:51;;;;;;;;;;;18.40;66.90;;;;;;4947954;28;45537;-61
2023/05/15 05:56:16;;;;;;;;;;;18.40;67.00;;;;;;4948032;28;45220;-59
2023/05/15 05:58:42;;;;;;;;;;;18.40;67.10;;;;;;4955152;28;46102;-60
2023/05/15 06:01:07;;;;;;;;;;;18.40;67.00;;;;;;4942573;28;45517;-60
2023/05/15 06:03:33;;;;;;;;;;;18.40;67.00;;;;;;4946701;28;44999;-60
2023/05/15 06:05:58;;;;;;;;;;;18.50;67.10;;;;;;4931807;28;45544;-62
2023/05/15 06:08:24;;;;;;;;;;;18.50;66.80;;;;;;4933379;28;47574;-61
2023/05/15 06:10:49;;;;;;;;;;;18.50;66.60;;;;;;4948091;28;46090;-60
2023/05/15 06:13:15;;;;;;;;;;;18.60;66.60;;;;;;4948121;28;45168;-62
2023/05/15 06:15:41;;;;;;;;;;;18.60;66.50;;;;;;4926185;28;46097;-60
2023/05/15 06:18:06;;;;;;;;;;;18.70;66.50;;;;;;4937719;28;46133;-59
2023/05/15 06:20:32;;;;;;;;;;;18.60;66.30;;;;;;4964990;23;45197;-60
2023/05/15 06:22:57;;;;;;;;;;;18.60;66.30;;;;;;4951427;28;45569;-59
2023/05/15 06:25:23;;;;;;;;;;;18.70;66.40;;;;;;4947601;28;45061;-58
2023/05/15 06:27:49;;;;;;;;;;;18.60;66.10;;;;;;4955642;28;45461;-57
2023/05/15 06:30:14;;;;;;;;;;;18.70;66.20;;;;;;4969409;28;45183;-59
2023/05/15 06:32:40;;;;;;;;;;;18.70;66.10;;;;;;4953859;28;45736;-59
2023/05/15 06:35:07;;;;;;;;;;;18.70;66.10;;;;;;4949280;28;45318;-61
2023/05/15 06:37:32;;;;;;;;;;;18.80;66.20;;;;;;4969813;28;47098;-59
2023/05/15 06:39:57;;;;;;;;;;;18.80;66.10;;;;;;4969569;28;45244;-60
2023/05/15 06:42:23;;;;;;;;;;;18.80;66.10;;;;;;4968421;28;45030;-60
2023/05/15 06:44:48;;;;;;;;;;;18.80;66.10;;;;;;4974987;28;45711;-61
2023/05/15 06:47:14;;;;;;;;;;;18.80;65.90;;;;;;4955289;28;47748;-59
2023/05/15 06:49:40;;;;;;;;;;;18.90;66.00;;;;;;4958051;28;45351;-60
2023/05/15 06:52:05;;;;;;;;;;;18.90;66.10;;;;;;4964495;28;45507;-59
2023/05/15 06:54:31;;;;;;;;;;;18.90;66.10;;;;;;4969716;28;45326;-59
2023/05/15 06:56:56;;;;;;;;;;;18.90;65.80;;;;;;4959184;28;46451;-60
2023/05/15 06:59:21;;;;;;;;;;;19.00;66.00;;;;;;4955730;28;45504;-59
2023/05/15 07:01:47;;;;;;;;;;;19.00;66.00;;;;;;4963511;28;45289;-59
2023/05/15 07:04:12;;;;;;;;;;;19.10;66.00;;;;;;4965615;28;45374;-60
2023/05/15 07:06:38;;;;;;;;;;;19.10;65.90;;;;;;4965999;28;45848;-60
2023/05/15 07:09:03;;;;;;;;;;;19.10;65.90;;;;;;4962347;28;45504;-60
2023/05/15 07:11:29;;;;;;;;;;;19.20;65.70;;;;;;4966838;28;45266;-61
2023/05/15 07:13:54;;;;;;;;;;;19.20;65.70;;;;;;4971878;28;45287;-61
2023/05/15 07:16:20;;;;;;;;;;;19.20;65.60;;;;;;4958583;28;46136;-59
2023/05/15 07:18:45;;;;;;;;;;;19.20;65.50;;;;;;4964777;28;45649;-61
2023/05/15 07:21:11;;;;;;;;;;;19.20;65.50;;;;;;4963054;28;45649;-60
2023/05/15 07:23:36;;;;;;;;;;;19.20;65.40;;;;;;4952739;28;45380;-60
2023/05/15 07:26:02;;;;;;;;;;;19.20;65.40;;;;;;4969381;28;45185;-60
2023/05/15 07:28:28;;;;;;;;;;;19.30;65.50;;;;;;4975217;28;44705;-59
2023/05/15 07:30:53;;;;;;;;;;;19.30;66.30;;;;;;4941930;28;45311;-60
2023/05/15 07:33:19;;;;;;;;;;;19.30;65.50;;;;;;4970272;28;45131;-61
2023/05/15 07:35:44;;;;;;;;;;;19.30;65.40;;;;;;4962758;28;46242;-64
2023/05/15 07:38:10;;;;;;;;;;;19.30;65.50;;;;;;4953408;28;46241;-60
2023/05/15 07:40:35;;;;;;;;;;;19.40;65.50;;;;;;4944223;28;45227;-61
2023/05/15 07:43:01;;;;;;;;;;;19.40;64.90;;;;;;4970157;28;45093;-62
2023/05/15 07:45:27;;;;;;;;;;;19.50;64.80;;;;;;4968218;28;46979;-59
2023/05/15 07:47:53;;;;;;;;;;;19.50;64.90;;;;;;4950226;28;45192;-60
2023/05/15 07:50:18;;;;;;;;;;;19.50;64.90;;;;;;4965169;28;45193;-61
2023/05/15 07:52:44;;;;;;;;;;;19.50;65.00;;;;;;4964716;28;45418;-60
2023/05/15 07:55:09;;;;;;;;;;;19.50;65.00;;;;;;4949262;28;45963;-61
2023/05/15 07:57:35;;;;;;;;;;;19.50;64.80;;;;;;4950159;28;45486;-59
2023/05/15 08:00:05;;;;;;;;;;;19.50;64.60;;;;;;4968217;28;45170;-61
2023/05/15 08:02:32;;;;;;;;;;;19.60;64.50;;;;;;4947444;28;45091;-59
2023/05/15 08:04:58;;;;;;;;;;;19.60;64.60;;;;;;4965560;28;46141;-60
2023/05/15 08:07:23;;;;;;;;;;;19.60;64.70;;;;;;4965130;28;46390;-60
2023/05/15 08:09:49;;;;;;;;;;;19.70;64.60;;;;;;4952801;28;45241;-60
2023/05/15 08:12:19;;;;;;;;;;;19.70;64.50;;;;;;4943013;28;45605;-61
2023/05/15 08:14:51;;;;;;;;;;;19.70;64.10;;;;;;4965286;28;45493;-61
2023/05/15 08:17:17;;;;;;;;;;;19.70;64.10;;;;;;4957189;28;45628;-61
2023/05/15 08:19:43;;;;;;;;;;;19.80;64.20;;;;;;4969900;28;45267;-61
2023/05/15 08:22:08;;;;;;;;;;;19.80;64.20;;;;;;4948986;28;45510;-61
2023/05/15 08:24:34;;;;;;;;;;;19.80;64.00;;;;;;4953079;28;45721;-60
2023/05/15 08:26:59;;;;;;;;;;;19.90;63.80;;;;;;4965962;28;45616;-61
2023/05/15 08:29:25;;;;;;;;;;;19.90;63.60;;;;;;4957002;28;45542;-60
2023/05/15 08:31:51;;;;;;;;;;;19.90;63.50;;;;;;4961330;28;45430;-59
2023/05/15 08:34:16;;;;;;;;;;;20.00;63.30;;;;;;4947270;28;46470;-61
2023/05/15 08:36:42;;;;;;;;;;;20.00;62.80;;;;;;4962400;28;45279;-60
2023/05/15 08:39:08;;;;;;;;;;;20.00;62.90;;;;;;4969573;28;44848;-59
2023/05/15 08:41:37;;;;;;;;;;;20.00;62.60;;;;;;4969341;28;45280;-60
2023/05/15 08:44:02;;;;;;;;;;;20.00;62.40;;;;;;4967434;28;46164;-60
2023/05/15 08:46:28;;;;;;;;;;;20.00;62.30;;;;;;4928041;28;45001;-60
2023/05/15 08:48:53;;;;;;;;;;;20.00;62.30;;;;;;4952679;28;45324;-58
2023/05/15 08:51:19;;;;;;;;;;;20.10;62.40;;;;;;4954956;28;45401;-60
2023/05/15 08:53:44;;;;;;;;;;;20.10;61.90;;;;;;4956133;28;45481;-60
2023/05/15 08:56:10;;;;;;;;;;;20.10;62.20;;;;;;4963277;28;45689;-60
2023/05/15 08:58:35;;;;;;;;;;;20.20;61.70;;;;;;4957962;28;45329;-58
2023/05/15 09:01:01;;;;;;;;;;;20.20;61.70;;;;;;4960055;28;45867;-60
2023/05/15 09:03:26;;;;;;;;;;;20.20;61.60;;;;;;4948968;28;47967;-58
2023/05/15 09:05:52;;;;;;;;;;;20.30;61.60;;;;;;4965718;28;45771;-60
2023/05/15 09:08:18;;;;;;;;;;;20.30;61.20;;;;;;4950720;28;45510;-59
2023/05/15 09:10:43;;;;;;;;;;;20.30;61.40;;;;;;4946293;28;45444;-60
2023/05/15 09:13:09;;;;;;;;;;;20.30;61.30;;;;;;4970969;28;44944;-58
2023/05/15 09:15:36;;;;;;;;;;;20.30;61.10;;;;;;4944939;28;44949;-61
2023/05/15 09:18:01;;;;;;;;;;;20.30;60.90;;;;;;4956278;28;45222;-61
2023/05/15 09:20:30;;;;;;;;;;;20.40;60.60;;;;;;4954833;28;45461;-64
2023/05/15 09:22:56;;;;;;;;;;;20.40;60.80;;;;;;4974912;28;45933;-60
2023/05/15 09:25:32;;;;;;;;;;;20.40;60.40;;;;;;4955503;28;45192;-61
2023/05/15 09:27:58;;;;;;;;;;;20.40;60.50;;;;;;4967082;28;45065;-61
2023/05/15 09:30:25;;;;;;;;;;;20.40;60.40;;;;;;4938193;28;46427;-60
2023/05/15 09:32:51;;;;;;;;;;;20.50;60.30;;;;;;4949945;28;45544;-58
2023/05/15 09:35:35;;;;;;;;;;;20.50;59.80;;;;;;4966988;28;45005;-62
2023/05/15 09:38:01;;;;;;;;;;;20.50;59.90;;;;;;4956892;28;45319;-61
2023/05/15 09:40:27;;;;;;;;;;;20.50;59.50;;;;;;4941786;28;45300;-63
2023/05/15 09:42:53;;;;;;;;;;;20.50;59.70;;;;;;4975364;28;46992;-61
2023/05/15 09:45:19;;;;;;;;;;;20.60;59.70;;;;;;4969428;28;45412;-62
2023/05/15 09:47:45;;;;;;;;;;;20.60;60.00;;;;;;4939559;28;45002;-57
2023/05/15 09:50:11;;;;;;;;;;;20.50;60.70;;;;;;4965220;28;45390;-60
2023/05/15 09:52:36;;;;;;;;;;;20.50;60.80;;;;;;4930544;28;45283;-60
2023/05/15 09:55:02;;;;;;;;;;;20.60;60.80;;;;;;4953963;28;45271;-62
2023/05/15 09:57:28;;;;;;;;;;;20.60;61.00;;;;;;4948415;28;45211;-59
2023/05/15 09:59:53;;;;;;;;;;;20.60;60.90;;;;;;4958593;28;45635;-61
2023/05/15 10:02:22;;;;;;;;;;;20.60;60.70;;;;;;4944120;28;45454;-61
2023/05/15 10:04:55;;;;;;;;;;;20.60;60.80;;;;;;4964605;28;45310;-60
2023/05/15 10:07:27;;;;;;;;;;;20.60;60.70;;;;;;4965844;28;45801;-59
2023/05/15 10:09:53;;;;;;;;;;;20.60;61.20;;;;;;4964705;28;45133;-60
2023/05/15 10:12:18;;;;;;;;;;;20.60;61.70;;;;;;4929764;28;47117;-58
2023/05/15 10:14:44;;;;;;;;;;;20.70;61.00;;;;;;4943387;28;45467;-59
2023/05/15 10:17:09;;;;;;;;;;;20.70;61.00;;;;;;4967287;28;45410;-58
2023/05/15 10:19:35;;;;;;;;;;;20.60;60.90;;;;;;4957777;28;45419;-58
2023/05/15 10:22:00;;;;;;;;;;;20.70;61.00;;;;;;4951397;28;46149;-60
2023/05/15 10:24:26;;;;;;;;;;;20.60;60.90;;;;;;4958522;28;45363;-60
2023/05/15 10:26:51;;;;;;;;;;;20.60;60.90;;;;;;4953611;28;46502;-58
2023/05/15 10:29:17;;;;;;;;;;;20.60;61.00;;;;;;4963087;28;46416;-59
2023/05/15 10:31:42;;;;;;;;;;;20.60;61.10;;;;;;4964484;28;47406;-60
2023/05/15 10:34:08;;;;;;;;;;;20.60;61.20;;;;;;4970466;28;44643;-61
2023/05/15 10:36:34;;;;;;;;;;;20.60;61.20;;;;;;4959105;28;46155;-61
2023/05/15 10:39:00;;;;;;;;;;;20.60;61.30;;;;;;4941404;28;45591;-60
2023/05/15 10:41:27;;;;;;;;;;;20.60;61.40;;;;;;4970664;28;45780;-60
2023/05/15 10:43:53;;;;;;;;;;;20.60;61.30;;;;;;4959790;28;44674;-61
2023/05/15 10:46:18;;;;;;;;;;;20.60;61.30;;;;;;4948612;28;45710;-61
2023/05/15 10:48:44;;;;;;;;;;;20.60;61.20;;;;;;4960132;28;45105;-57
2023/05/15 10:51:36;;;;;;;;;;;20.60;61.30;;;;;;4963111;28;45427;-60
2023/05/15 10:54:05;;;;;;;;;;;20.60;61.40;;;;;;4940084;28;45293;-58
2023/05/15 10:56:31;;;;;;;;;;;20.60;61.40;;;;;;4943753;28;45371;-58
2023/05/15 10:58:56;;;;;;;;;;;20.70;61.50;;;;;;4975655;28;45229;-56
2023/05/15 11:01:30;;;;;;;;;;;20.70;61.50;;;;;;4954339;28;46600;-59
2023/05/15 11:04:15;;;;;;;;;;;20.70;61.40;;;;;;4951951;28;44705;-59
2023/05/15 11:06:41;;;;;;;;;;;20.70;61.40;;;;;;4966725;28;44764;-59
2023/05/15 11:09:30;;;;;;;;;;;20.70;61.30;;;;;;4974322;28;45201;-59
2023/05/15 11:11:59;;;;;;;;;;;20.80;61.40;;;;;;4957112;28;46175;-56
2023/05/15 11:14:25;;;;;;;;;;;20.80;61.50;;;;;;4978415;28;45587;-58
2023/05/15 11:16:53;;;;;;;;;;;20.80;61.40;;;;;;4956988;28;46445;-59
2023/05/15 11:19:22;;;;;;;;;;;20.80;61.50;;;;;;4973796;28;45805;-59
2023/05/15 11:21:49;;;;;;;;;;;20.80;61.50;;;;;;4965277;28;45693;-57
2023/05/15 11:24:15;;;;;;;;;;;20.90;61.60;;;;;;4953393;28;45515;-58
2023/05/15 11:26:41;;;;;;;;;;;20.90;61.60;;;;;;4966161;28;45244;-59
2023/05/15 11:29:17;;;;;;;;;;;20.90;61.60;;;;;;4963311;28;45248;-58
2023/05/15 11:31:43;;;;;;;;;;;20.90;61.60;;;;;;4949189;28;46437;-58
2023/05/15 11:34:08;;;;;;;;;;;20.90;61.60;;;;;;4955268;28;45390;-58
2023/05/15 11:36:38;;;;;;;;;;;20.90;61.60;;;;;;4976814;28;45168;-59
2023/05/15 11:39:12;;;;;;;;;;;20.90;61.50;;;;;;4950440;28;45477;-56
2023/05/15 11:41:38;;;;;;;;;;;21.00;61.50;;;;;;4967815;28;47028;-58
2023/05/15 11:44:04;;;;;;;;;;;21.00;61.50;;;;;;4968801;28;45176;-58
2023/05/15 11:46:29;;;;;;;;;;;21.00;61.60;;;;;;4944114;28;45667;-58
2023/05/15 11:48:55;;;;;;;;;;;21.00;61.50;;;;;;4967457;28;45283;-57
2023/05/15 11:51:20;;;;;;;;;;;21.00;61.50;;;;;;4953663;28;45957;-58
2023/05/15 11:53:46;;;;;;;;;;;21.00;61.50;;;;;;4960485;28;45195;-60
2023/05/15 11:56:21;;;;;;;;;;;21.00;61.40;;;;;;4971814;28;45676;-57
2023/05/15 11:58:48;;;;;;;;;;;21.10;61.40;;;;;;4972288;28;45365;-57
2023/05/15 12:01:13;;;;;;;;;;;21.10;61.50;;;;;;4951645;28;47049;-59
2023/05/15 12:03:38;;;;;;;;;;;21.10;62.20;;;;;;4950892;28;46169;-59
2023/05/15 12:06:04;;;;;;;;;;;21.10;61.50;;;;;;4970070;28;44684;-55
2023/05/15 12:08:31;;;;;;;;;;;21.10;61.50;;;;;;4955239;28;45447;-58
2023/05/15 12:10:56;;;;;;;;;;;21.10;61.50;;;;;;4946674;28;46268;-57
2023/05/15 12:13:23;;;;;;;;;;;21.10;61.50;;;;;;4980438;28;45454;-57
2023/05/15 12:15:48;;;;;;;;;;;21.10;61.50;;;;;;4963753;28;45219;-59
2023/05/15 12:18:14;;;;;;;;;;;21.10;61.40;;;;;;4975930;28;44855;-57
2023/05/15 12:20:43;;;;;;;;;;;21.20;61.50;;;;;;4946059;28;46019;-58
2023/05/15 12:23:09;;;;;;;;;;;21.20;61.50;;;;;;4969031;28;45578;-58
2023/05/15 12:25:34;;;;;;;;;;;21.20;61.50;;;;;;4968889;28;45032;-59
2023/05/15 12:28:00;;;;;;;;;;;21.20;61.50;;;;;;4976217;28;45746;-57
2023/05/15 12:30:27;;;;;;;;;;;21.20;61.60;;;;;;4968370;28;46081;-58
2023/05/15 12:32:52;;;;;;;;;;;21.20;61.80;;;;;;4937389;28;45475;-59
2023/05/15 12:35:21;;;;;;;;;;;21.20;61.50;;;;;;4951852;28;45527;-59
2023/05/15 12:37:47;;;;;;;;;;;21.20;61.60;;;;;;4951445;28;45550;-58
2023/05/15 12:40:13;;;;;;;;;;;21.20;61.50;;;;;;4950423;28;45562;-59
2023/05/15 12:42:39;;;;;;;;;;;21.30;61.60;;;;;;4974547;28;45313;-59
2023/05/15 12:45:10;;;;;;;;;;;21.30;61.50;;;;;;4971530;28;45394;-59
2023/05/15 12:47:36;;;;;;;;;;;21.30;61.50;;;;;;4952034;28;45501;-59
2023/05/15 12:50:01;;;;;;;;;;;21.30;61.50;;;;;;4973478;28;45866;-57
2023/05/15 12:52:27;;;;;;;;;;;21.30;61.60;;;;;;4965487;28;44630;-55
2023/05/15 12:54:52;;;;;;;;;;;21.30;61.60;;;;;;4966623;28;45414;-57
2023/05/15 12:57:18;;;;;;;;;;;21.30;61.60;;;;;;4972540;28;45030;-58
2023/05/15 12:59:44;;;;;;;;;;;21.40;61.70;;;;;;4978073;28;45073;-58
2023/05/15 13:02:11;;;;;;;;;;;21.40;61.70;;;;;;4952310;28;64325;-61
2023/05/15 13:04:37;;;;;;;;;;;21.40;61.70;;;;;;4971664;28;45389;-57
2023/05/15 13:07:03;;;;;;;;;;;21.40;61.70;;;;;;4965180;28;45260;-59
2023/05/15 13:09:29;;;;;;;;;;;21.40;61.60;;;;;;4968092;28;45934;-59
2023/05/15 13:11:55;;;;;;;;;;;21.40;61.50;;;;;;4970664;28;44778;-58
2023/05/15 13:14:21;;;;;;;;;;;21.40;61.50;;;;;;4979291;28;45663;-58
2023/05/15 13:16:47;;;;;;;;;;;21.40;61.60;;;;;;4944264;28;45243;-60
2023/05/15 13:19:12;;;;;;;;;;;21.50;61.60;;;;;;4970958;28;45334;-58
2023/05/15 13:21:38;;;;;;;;;;;21.50;61.60;;;;;;4951840;28;45567;-56
2023/05/15 13:24:04;;;;;;;;;;;21.50;61.60;;;;;;4954005;28;45271;-57
2023/05/15 13:26:29;;;;;;;;;;;21.50;61.60;;;;;;4946688;28;45228;-58
2023/05/15 13:28:55;;;;;;;;;;;21.50;61.60;;;;;;4952123;28;46765;-59
2023/05/15 13:31:20;;;;;;;;;;;21.50;61.60;;;;;;4945244;28;45624;-58
2023/05/15 13:33:46;;;;;;;;;;;21.50;61.50;;;;;;4953638;28;45882;-60
2023/05/15 13:36:12;;;;;;;;;;;21.50;61.40;;;;;;4949392;28;45311;-59
2023/05/15 13:38:38;;;;;;;;;;;21.50;61.60;;;;;;4947612;28;46107;-59
2023/05/15 13:41:03;;;;;;;;;;;21.60;61.60;;;;;;4945040;28;45155;-58
2023/05/15 13:43:29;;;;;;;;;;;21.50;61.50;;;;;;4960721;28;45173;-59
2023/05/15 13:45:54;;;;;;;;;;;21.60;61.50;;;;;;4944412;28;44775;-59
2023/05/15 13:48:20;;;;;;;;;;;21.60;61.50;;;;;;4948051;28;45935;-58
2023/05/15 13:50:45;;;;;;;;;;;21.60;61.50;;;;;;4948636;28;45204;-59
2023/05/15 13:53:15;;;;;;;;;;;21.60;61.40;;;;;;4955765;28;45799;-59
2023/05/15 13:55:44;;;;;;;;;;;21.60;61.40;;;;;;4951614;28;45149;-60
2023/05/15 13:58:12;;;;;;;;;;;21.60;61.40;;;;;;4959131;28;46017;-58
2023/05/15 14:00:38;;;;;;;;;;;21.60;61.40;;;;;;4944312;28;45461;-59
2023/05/15 14:03:07;;;;;;;;;;;21.70;61.40;;;;;;4939076;28;45464;-59
2023/05/15 14:05:33;;;;;;;;;;;21.70;61.40;;;;;;4947955;28;45275;-59
2023/05/15 14:07:58;;;;;;;;;;;21.70;61.40;;;;;;4954305;28;45209;-58
2023/05/15 14:10:24;;;;;;;;;;;21.70;61.40;;;;;;4944763;28;45296;-59
2023/05/15 14:12:49;;;;;;;;;;;21.70;61.40;;;;;;4960864;28;45141;-59
2023/05/15 14:15:15;;;;;;;;;;;21.70;61.40;;;;;;4956812;28;45486;-59
2023/05/15 14:17:41;;;;;;;;;;;21.80;61.40;;;;;;4956804;28;45667;-58
2023/05/15 14:20:08;;;;;;;;;;;21.70;61.40;;;;;;4960693;28;45893;-60
2023/05/15 14:22:34;;;;;;;;;;;21.80;61.60;;;;;;4917689;28;45235;-55
2023/05/15 14:25:00;;;;;;;;;;;21.80;61.40;;;;;;4964174;28;45348;-58
2023/05/15 14:27:26;;;;;;;;;;;21.80;61.40;;;;;;4949365;28;45177;-57
2023/05/15 14:29:51;;;;;;;;;;;21.80;61.40;;;;;;4959441;28;45308;-58
2023/05/15 14:32:17;;;;;;;;;;;21.80;61.40;;;;;;4940314;28;45396;-58
2023/05/15 14:34:42;;;;;;;;;;;21.80;61.40;;;;;;4959208;28;46283;-58
2023/05/15 14:37:08;;;;;;;;;;;21.80;61.40;;;;;;4949721;28;46162;-58
2023/05/15 14:39:33;;;;;;;;;;;21.80;61.30;;;;;;4956860;28;44689;-55
2023/05/15 14:41:59;;;;;;;;;;;21.80;61.40;;;;;;4945685;28;44938;-58
2023/05/15 14:44:24;;;;;;;;;;;21.80;61.40;;;;;;4959210;28;45744;-58
2023/05/15 14:47:03;;;;;;;;;;;21.90;61.40;;;;;;4954911;28;45290;-55
2023/05/15 14:49:28;;;;;;;;;;;21.90;61.30;;;;;;4957218;28;45264;-59
2023/05/15 14:51:54;;;;;;;;;;;21.80;61.30;;;;;;4954331;28;45220;-58
2023/05/15 14:54:19;;;;;;;;;;;21.90;61.40;;;;;;4951692;28;46735;-57
2023/05/15 14:56:46;;;;;;;;;;;21.90;61.40;;;;;;4953075;28;44981;-58
2023/05/15 14:59:13;;;;;;;;;;;21.90;61.40;;;;;;4960428;28;45186;-58
2023/05/15 15:01:38;;;;;;;;;;;21.90;61.40;;;;;;4948546;28;45597;-56
2023/05/15 15:04:04;;;;;;;;;;;21.90;61.30;;;;;;4949736;28;45639;-57
2023/05/15 15:06:30;;;;;;;;;;;21.90;61.40;;;;;;4952209;28;46998;-58
2023/05/15 15:08:56;;;;;;;;;;;21.90;61.30;;;;;;4958470;28;45341;-57
2023/05/15 15:11:21;;;;;;;;;;;21.90;61.30;;;;;;4954874;28;45729;-59
2023/05/15 15:13:47;;;;;;;;;;;21.90;61.20;;;;;;4966512;28;45581;-58
2023/05/15 15:16:12;;;;;;;;;;;22.00;61.40;;;;;;4943402;28;46248;-58
2023/05/15 15:18:37;;;;;;;;;;;22.00;61.30;;;;;;4953848;28;45308;-59
2023/05/15 15:21:03;;;;;;;;;;;22.00;61.30;;;;;;4957028;28;45418;-59
2023/05/15 15:23:29;;;;;;;;;;;22.00;61.20;;;;;;4943677;28;45393;-58
2023/05/15 15:25:54;;;;;;;;;;;22.00;61.30;;;;;;4964148;28;45508;-59
2023/05/15 15:28:20;;;;;;;;;;;22.00;61.20;;;;;;4972466;28;45244;-59
2023/05/15 15:30:45;;;;;;;;;;;22.00;61.30;;;;;;4968558;28;45074;-57
2023/05/15 15:33:11;;;;;;;;;;;22.00;61.20;;;;;;4974486;28;44861;-58
2023/05/15 15:35:36;;;;;;;;;;;22.00;61.30;;;;;;4967040;28;47850;-59
2023/05/15 15:38:02;;;;;;;;;;;22.10;62.00;;;;;;4974347;28;45275;-59
2023/05/15 15:40:28;;;;;;;;;;;22.00;61.10;;;;;;4968058;28;45521;-59
2023/05/15 15:42:53;;;;;;;;;;;22.00;61.00;;;;;;4972462;28;45014;-59
2023/05/15 15:45:19;;;;;;;;;;;22.00;60.90;;;;;;4968864;28;45322;-62
2023/05/15 15:47:45;;;;;;;;;;;22.00;61.00;;;;;;4936748;28;44663;-57
2023/05/15 15:50:10;;;;;;;;;;;22.00;61.10;;;;;;4970709;28;45379;-57
2023/05/15 15:52:36;;;;;;;;;;;22.00;61.10;;;;;;4944451;28;45217;-56
2023/05/15 15:55:01;;;;;;;;;;;22.00;61.10;;;;;;4957249;28;45325;-59
2023/05/15 15:57:27;;;;;;;;;;;22.00;61.10;;;;;;4964058;28;45190;-58
2023/05/15 15:59:53;;;;;;;;;;;21.90;61.80;;;;;;4956870;28;45015;-56
2023/05/15 16:02:19;;;;;;;;;;;21.90;61.10;;;;;;4966761;28;45997;-57
2023/05/15 16:04:45;;;;;;;;;;;21.90;61.10;;;;;;4976743;28;46194;-56
2023/05/15 16:07:10;;;;;;;;;;;21.90;61.10;;;;;;4952222;28;45310;-57
2023/05/15 16:09:36;;;;;;;;;;;21.90;61.10;;;;;;4973883;28;45549;-58
2023/05/15 16:12:02;;;;;;;;;;;21.90;61.30;;;;;;4970722;28;45693;-59
2023/05/15 16:14:28;;;;;;;;;;;21.90;61.20;;;;;;4953434;28;45764;-59
2023/05/15 16:16:53;;;;;;;;;;;21.90;61.20;;;;;;4964448;28;45316;-60
2023/05/15 16:19:19;;;;;;;;;;;21.90;61.30;;;;;;4952108;28;45725;-58
2023/05/15 16:21:45;;;;;;;;;;;21.90;61.30;;;;;;4964311;28;45232;-57
2023/05/15 16:24:10;;;;;;;;;;;21.90;61.20;;;;;;4947972;28;46935;-59
2023/05/15 16:26:36;;;;;;;;;;;21.90;61.20;;;;;;4950264;28;45991;-57
2023/05/15 16:29:01;;;;;;;;;;;21.90;61.20;;;;;;4935170;28;45811;-58
2023/05/15 16:31:27;;;;;;;;;;;21.90;61.30;;;;;;4950363;28;45730;-59
2023/05/15 16:33:52;;;;;;;;;;;21.90;61.30;;;;;;4951515;28;46159;-57
2023/05/15 16:36:18;;;;;;;;;;;21.90;61.40;;;;;;4968108;28;45282;-58
2023/05/15 16:38:43;;;;;;;;;;;21.90;61.30;;;;;;4976296;28;45537;-58
2023/05/15 16:41:09;;;;;;;;;;;21.80;61.30;;;;;;4970591;28;45516;-57
2023/05/15 16:43:36;;;;;;;;;;;21.90;61.40;;;;;;4978746;28;45614;-57
2023/05/15 16:46:03;;;;;;;;;;;21.90;61.40;;;;;;4946222;28;44678;-58
2023/05/15 16:48:28;;;;;;;;;;;21.90;61.50;;;;;;4975384;28;46130;-58
2023/05/15 16:50:54;;;;;;;;;;;21.80;61.50;;;;;;4969732;28;45326;-57
2023/05/15 16:53:19;;;;;;;;;;;21.80;61.40;;;;;;4971858;28;46176;-58
2023/05/15 16:55:46;;;;;;;;;;;21.80;61.50;;;;;;4959888;28;45585;-57
2023/05/15 16:58:11;;;;;;;;;;;21.80;61.50;;;;;;4962646;28;44680;-58
2023/05/15 17:00:37;;;;;;;;;;;21.80;61.50;;;;;;4962694;28;45275;-60
2023/05/15 17:03:03;;;;;;;;;;;21.80;61.50;;;;;;4976015;28;46217;-58
2023/05/15 17:05:28;;;;;;;;;;;21.80;61.50;;;;;;4972817;28;44614;-58
2023/05/15 17:07:54;;;;;;;;;;;21.80;61.40;;;;;;4972588;28;45189;-59
2023/05/15 17:10:19;;;;;;;;;;;21.80;61.60;;;;;;4963409;28;45467;-59